sensor_id;sensor_type;location;lat;lon;timestamp;pressure;altitude;pressure_sealevel;temperature;humidity
67013;BME280;53926;47.406;19.188;2023-02-28T00:00:26;101438.78;;;-1.39;79.61
67013;BME280;53926;47.406;19.188;2023-02-28T00:02:53;101437.13;;;-1.40;79.54
67013;BME280;53926;47.406;19.188;2023-02-28T00:05:21;101445.72;;;-1.41;80.25
67013;BME280;53926;47.406;19.188;2023-02-28T00:07:49;101447.53;;;-1.44;79.75
67013;BME280;53926;47.406;19.188;2023-02-28T00:10:18;101454.69;;;-1.36;78.71
67013;BME280;53926;47.406;19.188;2023-02-28T00:12:48;101455.44;;;-1.34;78.45
67013;BME280;53926;47.406;19.188;2023-02-28T00:15:15;101452.38;;;-1.26;77.71
67013;BME280;53926;47.406;19.188;2023-02-28T00:17:42;101458.19;;;-1.24;78.27
67013;BME280;53926;47.406;19.188;2023-02-28T00:20:10;101450.13;;;-1.18;78.21
67013;BME280;53926;47.406;19.188;2023-02-28T00:22:43;101448.91;;;-1.12;78.00
67013;BME280;53926;47.406;19.188;2023-02-28T00:25:11;101460.53;;;-1.21;79.04
67013;BME280;53926;47.406;19.188;2023-02-28T00:27:40;101454.63;;;-1.09;77.53
67013;BME280;53926;47.406;19.188;2023-02-28T00:30:09;101458.28;;;-1.13;78.94
67013;BME280;53926;47.406;19.188;2023-02-28T00:32:37;101456.47;;;-1.11;77.73
67013;BME280;53926;47.406;19.188;2023-02-28T00:35:04;101471.50;;;-1.06;77.70
67013;BME280;53926;47.406;19.188;2023-02-28T00:37:31;101463.63;;;-1.03;78.43
67013;BME280;53926;47.406;19.188;2023-02-28T00:39:58;101470.66;;;-1.06;78.13
67013;BME280;53926;47.406;19.188;2023-02-28T00:42:25;101463.22;;;-0.97;78.05
67013;BME280;53926;47.406;19.188;2023-02-28T00:44:51;101468.81;;;-0.92;76.91
67013;BME280;53926;47.406;19.188;2023-02-28T00:47:18;101462.47;;;-0.99;76.71
67013;BME280;53926;47.406;19.188;2023-02-28T00:49:45;101463.91;;;-0.95;77.86
67013;BME280;53926;47.406;19.188;2023-02-28T00:52:11;101461.66;;;-0.99;77.39
67013;BME280;53926;47.406;19.188;2023-02-28T00:54:38;101469.03;;;-0.95;77.71
67013;BME280;53926;47.406;19.188;2023-02-28T00:57:04;101463.41;;;-0.87;77.81
67013;BME280;53926;47.406;19.188;2023-02-28T00:59:31;101472.50;;;-0.83;76.70
67013;BME280;53926;47.406;19.188;2023-02-28T01:01:58;101466.75;;;-0.86;79.07
67013;BME280;53926;47.406;19.188;2023-02-28T01:04:25;101462.81;;;-0.91;77.25
67013;BME280;53926;47.406;19.188;2023-02-28T01:06:51;101467.28;;;-0.94;77.54
67013;BME280;53926;47.406;19.188;2023-02-28T01:09:18;101467.06;;;-0.91;77.87
67013;BME280;53926;47.406;19.188;2023-02-28T01:11:45;101470.97;;;-0.85;77.27
67013;BME280;53926;47.406;19.188;2023-02-28T01:14:18;101463.72;;;-0.92;77.69
67013;BME280;53926;47.406;19.188;2023-02-28T01:16:45;101465.56;;;-0.94;78.41
67013;BME280;53926;47.406;19.188;2023-02-28T01:19:12;101469.53;;;-0.90;78.68
67013;BME280;53926;47.406;19.188;2023-02-28T01:21:39;101466.66;;;-0.85;78.66
67013;BME280;53926;47.406;19.188;2023-02-28T01:24:06;101471.56;;;-0.82;78.61
67013;BME280;53926;47.406;19.188;2023-02-28T01:26:33;101470.69;;;-0.94;80.95
67013;BME280;53926;47.406;19.188;2023-02-28T01:28:59;101458.91;;;-0.96;80.21
67013;BME280;53926;47.406;19.188;2023-02-28T01:31:26;101465.66;;;-0.95;80.47
67013;BME280;53926;47.406;19.188;2023-02-28T01:33:53;101471.59;;;-0.95;80.10
67013;BME280;53926;47.406;19.188;2023-02-28T01:36:23;101472.41;;;-0.94;80.10
67013;BME280;53926;47.406;19.188;2023-02-28T01:38:50;101474.06;;;-1.06;81.76
67013;BME280;53926;47.406;19.188;2023-02-28T01:41:21;101480.06;;;-1.07;80.77
67013;BME280;53926;47.406;19.188;2023-02-28T01:46:15;101477.63;;;-1.21;81.51
67013;BME280;53926;47.406;19.188;2023-02-28T01:48:50;101473.94;;;-1.30;81.93
67013;BME280;53926;47.406;19.188;2023-02-28T01:51:45;101477.94;;;-1.26;82.57
67013;BME280;53926;47.406;19.188;2023-02-28T01:54:18;101472.81;;;-1.26;81.89
67013;BME280;53926;47.406;19.188;2023-02-28T01:57:04;101469.44;;;-1.27;82.18
67013;BME280;53926;47.406;19.188;2023-02-28T02:02:13;101463.50;;;-1.27;81.64
67013;BME280;53926;47.406;19.188;2023-02-28T02:04:55;101467.41;;;-1.21;81.32
67013;BME280;53926;47.406;19.188;2023-02-28T02:07:24;101470.25;;;-1.26;81.75
67013;BME280;53926;47.406;19.188;2023-02-28T02:10:05;101461.66;;;-1.25;81.57
67013;BME280;53926;47.406;19.188;2023-02-28T02:15:12;101467.81;;;-1.28;81.90
67013;BME280;53926;47.406;19.188;2023-02-28T02:17:52;101466.47;;;-1.33;82.55
67013;BME280;53926;47.406;19.188;2023-02-28T02:25:54;101460.03;;;-1.26;82.14
67013;BME280;53926;47.406;19.188;2023-02-28T02:39:39;101470.66;;;-1.06;80.95
67013;BME280;53926;47.406;19.188;2023-02-28T02:42:15;101468.41;;;-1.11;81.35
67013;BME280;53926;47.406;19.188;2023-02-28T02:44:48;101467.00;;;-1.02;80.88
67013;BME280;53926;47.406;19.188;2023-02-28T02:47:21;101459.12;;;-0.99;81.54
67013;BME280;53926;47.406;19.188;2023-02-28T02:49:52;101460.13;;;-1.02;81.77
67013;BME280;53926;47.406;19.188;2023-02-28T02:52:30;101458.00;;;-0.95;80.71
67013;BME280;53926;47.406;19.188;2023-02-28T02:54:59;101457.91;;;-0.94;80.67
67013;BME280;53926;47.406;19.188;2023-02-28T02:57:33;101461.28;;;-1.06;80.86
67013;BME280;53926;47.406;19.188;2023-02-28T03:00:03;101449.38;;;-0.94;81.04
67013;BME280;53926;47.406;19.188;2023-02-28T03:02:31;101454.28;;;-0.91;81.76
67013;BME280;53926;47.406;19.188;2023-02-28T03:05:04;101445.22;;;-0.95;81.59
67013;BME280;53926;47.406;19.188;2023-02-28T03:07:32;101453.28;;;-1.01;81.59
67013;BME280;53926;47.406;19.188;2023-02-28T03:09:59;101459.41;;;-0.91;81.09
67013;BME280;53926;47.406;19.188;2023-02-28T03:12:41;101466.66;;;-0.85;80.95
67013;BME280;53926;47.406;19.188;2023-02-28T03:15:26;101466.56;;;-0.83;80.57
67013;BME280;53926;47.406;19.188;2023-02-28T03:20:41;101462.81;;;-0.91;80.72
67013;BME280;53926;47.406;19.188;2023-02-28T03:23:19;101468.00;;;-0.92;81.20
67013;BME280;53926;47.406;19.188;2023-02-28T03:26:04;101467.59;;;-0.86;81.68
67013;BME280;53926;47.406;19.188;2023-02-28T03:31:20;101465.53;;;-0.81;81.86
67013;BME280;53926;47.406;19.188;2023-02-28T03:33:55;101469.00;;;-0.82;80.18
67013;BME280;53926;47.406;19.188;2023-02-28T03:36:45;101462.06;;;-0.80;80.73
67013;BME280;53926;47.406;19.188;2023-02-28T03:39:18;101464.94;;;-0.84;83.70
67013;BME280;53926;47.406;19.188;2023-02-28T03:41:53;101466.25;;;-0.92;81.84
67013;BME280;53926;47.406;19.188;2023-02-28T03:44:29;101469.84;;;-0.94;82.21
67013;BME280;53926;47.406;19.188;2023-02-28T03:47:22;101471.97;;;-0.88;81.15
67013;BME280;53926;47.406;19.188;2023-02-28T03:49:54;101468.22;;;-0.95;80.97
67013;BME280;53926;47.406;19.188;2023-02-28T03:52:27;101482.09;;;-0.86;82.42
67013;BME280;53926;47.406;19.188;2023-02-28T03:55:00;101464.72;;;-0.81;80.73
67013;BME280;53926;47.406;19.188;2023-02-28T04:00:30;101468.13;;;-0.94;81.61
67013;BME280;53926;47.406;19.188;2023-02-28T04:02:57;101467.50;;;-0.84;83.52
67013;BME280;53926;47.406;19.188;2023-02-28T04:05:25;101468.81;;;-0.92;81.89
67013;BME280;53926;47.406;19.188;2023-02-28T04:07:53;101462.19;;;-0.81;83.06
67013;BME280;53926;47.406;19.188;2023-02-28T04:10:20;101464.72;;;-0.81;82.15
67013;BME280;53926;47.406;19.188;2023-02-28T04:12:47;101461.44;;;-0.83;82.51
67013;BME280;53926;47.406;19.188;2023-02-28T04:15:13;101467.28;;;-0.81;83.25
67013;BME280;53926;47.406;19.188;2023-02-28T04:17:40;101462.97;;;-0.81;82.17
67013;BME280;53926;47.406;19.188;2023-02-28T04:20:07;101462.06;;;-0.80;82.31
67013;BME280;53926;47.406;19.188;2023-02-28T04:22:36;101460.03;;;-0.87;83.60
67013;BME280;53926;47.406;19.188;2023-02-28T04:25:04;101461.66;;;-0.86;83.27
67013;BME280;53926;47.406;19.188;2023-02-28T04:27:32;101453.25;;;-0.76;82.10
67013;BME280;53926;47.406;19.188;2023-02-28T04:29:58;101452.03;;;-0.70;82.30
67013;BME280;53926;47.406;19.188;2023-02-28T04:32:25;101450.91;;;-0.79;82.05
67013;BME280;53926;47.406;19.188;2023-02-28T04:34:52;101458.16;;;-0.73;82.65
67013;BME280;53926;47.406;19.188;2023-02-28T04:37:18;101455.81;;;-0.76;81.23
67013;BME280;53926;47.406;19.188;2023-02-28T04:39:45;101453.87;;;-0.72;81.35
67013;BME280;53926;47.406;19.188;2023-02-28T04:42:12;101456.22;;;-0.69;81.51
67013;BME280;53926;47.406;19.188;2023-02-28T04:44:39;101454.91;;;-0.75;80.12
67013;BME280;53926;47.406;19.188;2023-02-28T04:47:06;101453.03;;;-0.73;80.86
67013;BME280;53926;47.406;19.188;2023-02-28T04:49:33;101455.06;;;-0.65;80.26
67013;BME280;53926;47.406;19.188;2023-02-28T04:51:59;101456.22;;;-0.69;80.28
67013;BME280;53926;47.406;19.188;2023-02-28T04:54:26;101459.38;;;-0.65;80.13
67013;BME280;53926;47.406;19.188;2023-02-28T04:56:52;101449.94;;;-0.65;79.77
67013;BME280;53926;47.406;19.188;2023-02-28T04:59:19;101450.78;;;-0.64;79.36
67013;BME280;53926;47.406;19.188;2023-02-28T05:01:48;101445.47;;;-0.61;79.46
67013;BME280;53926;47.406;19.188;2023-02-28T05:04:15;101451.91;;;-0.68;80.13
67013;BME280;53926;47.406;19.188;2023-02-28T05:06:42;101449.47;;;-0.70;80.05
67013;BME280;53926;47.406;19.188;2023-02-28T05:09:09;101447.13;;;-0.73;80.78
67013;BME280;53926;47.406;19.188;2023-02-28T05:11:38;101449.28;;;-0.80;80.15
67013;BME280;53926;47.406;19.188;2023-02-28T05:14:17;101447.03;;;-0.84;79.34
67013;BME280;53926;47.406;19.188;2023-02-28T05:16:44;101443.97;;;-0.77;80.91
67013;BME280;53926;47.406;19.188;2023-02-28T05:19:10;101444.06;;;-0.78;79.99
67013;BME280;53926;47.406;19.188;2023-02-28T05:21:47;101449.06;;;-0.77;79.71
67013;BME280;53926;47.406;19.188;2023-02-28T05:24:15;101450.41;;;-0.84;79.89
67013;BME280;53926;47.406;19.188;2023-02-28T05:26:50;101456.53;;;-0.74;80.10
67013;BME280;53926;47.406;19.188;2023-02-28T05:29:18;101460.53;;;-0.82;80.41
67013;BME280;53926;47.406;19.188;2023-02-28T05:31:48;101462.03;;;-0.67;79.88
67013;BME280;53926;47.406;19.188;2023-02-28T05:34:17;101463.59;;;-0.64;80.61
67013;BME280;53926;47.406;19.188;2023-02-28T05:36:44;101466.66;;;-0.72;80.38
67013;BME280;53926;47.406;19.188;2023-02-28T05:39:10;101465.13;;;-0.75;81.66
67013;BME280;53926;47.406;19.188;2023-02-28T05:41:42;101462.66;;;-0.76;80.98
67013;BME280;53926;47.406;19.188;2023-02-28T05:44:13;101466.03;;;-0.76;80.93
67013;BME280;53926;47.406;19.188;2023-02-28T05:46:39;101468.81;;;-0.66;80.88
67013;BME280;53926;47.406;19.188;2023-02-28T05:49:06;101466.12;;;-0.64;80.43
67013;BME280;53926;47.406;19.188;2023-02-28T05:51:33;101470.41;;;-0.65;82.33
67013;BME280;53926;47.406;19.188;2023-02-28T05:54:02;101478.41;;;-0.57;80.45
67013;BME280;53926;47.406;19.188;2023-02-28T05:56:29;101482.38;;;-0.52;81.49
67013;BME280;53926;47.406;19.188;2023-02-28T05:58:56;101485.34;;;-0.46;81.74
67013;BME280;53926;47.406;19.188;2023-02-28T06:04:02;101489.56;;;-0.21;79.16
67013;BME280;53926;47.406;19.188;2023-02-28T06:06:29;101488.03;;;-0.23;79.28
67013;BME280;53926;47.406;19.188;2023-02-28T06:08:56;101486.12;;;-0.08;78.64
67013;BME280;53926;47.406;19.188;2023-02-28T06:11:23;101483.16;;;-0.02;77.87
67013;BME280;53926;47.406;19.188;2023-02-28T06:13:55;101484.28;;;-0.06;78.44
67013;BME280;53926;47.406;19.188;2023-02-28T06:16:23;101491.03;;;0.19;77.56
67013;BME280;53926;47.406;19.188;2023-02-28T06:18:50;101486.00;;;0.06;76.74
67013;BME280;53926;47.406;19.188;2023-02-28T06:21:18;101493.41;;;0.33;75.23
67013;BME280;53926;47.406;19.188;2023-02-28T06:23:45;101489.19;;;0.21;76.04
67013;BME280;53926;47.406;19.188;2023-02-28T06:26:12;101494.63;;;0.16;77.20
67013;BME280;53926;47.406;19.188;2023-02-28T06:28:38;101502.66;;;0.36;75.21
67013;BME280;53926;47.406;19.188;2023-02-28T06:31:10;101492.31;;;0.49;73.52
67013;BME280;53926;47.406;19.188;2023-02-28T06:33:37;101497.16;;;0.76;73.20
67013;BME280;53926;47.406;19.188;2023-02-28T06:36:05;101499.84;;;0.75;73.00
67013;BME280;53926;47.406;19.188;2023-02-28T06:38:32;101501.53;;;0.51;73.58
67013;BME280;53926;47.406;19.188;2023-02-28T06:41:00;101508.06;;;0.56;73.18
67013;BME280;53926;47.406;19.188;2023-02-28T06:43:29;101505.28;;;0.59;72.71
67013;BME280;53926;47.406;19.188;2023-02-28T06:45:57;101508.06;;;0.56;72.90
67013;BME280;53926;47.406;19.188;2023-02-28T06:48:26;101506.41;;;0.90;72.32
67013;BME280;53926;47.406;19.188;2023-02-28T06:51:01;101504.44;;;1.28;71.20
67013;BME280;53926;47.406;19.188;2023-02-28T06:53:28;101511.91;;;1.19;68.77
67013;BME280;53926;47.406;19.188;2023-02-28T06:55:54;101499.53;;;1.24;68.00
67013;BME280;53926;47.406;19.188;2023-02-28T06:58:21;101501.53;;;1.32;67.75
67013;BME280;53926;47.406;19.188;2023-02-28T07:00:51;101512.22;;;1.60;66.20
67013;BME280;53926;47.406;19.188;2023-02-28T07:03:18;101518.37;;;1.80;66.56
67013;BME280;53926;47.406;19.188;2023-02-28T07:05:45;101518.78;;;1.64;64.83
67013;BME280;53926;47.406;19.188;2023-02-28T07:08:11;101511.16;;;1.74;65.97
67013;BME280;53926;47.406;19.188;2023-02-28T07:10:39;101521.16;;;2.00;65.79
67013;BME280;53926;47.406;19.188;2023-02-28T07:13:06;101522.53;;;1.49;65.55
67013;BME280;53926;47.406;19.188;2023-02-28T07:15:34;101523.03;;;1.86;64.73
67013;BME280;53926;47.406;19.188;2023-02-28T07:18:05;101520.66;;;2.06;64.71
67013;BME280;53926;47.406;19.188;2023-02-28T07:20:31;101519.69;;;1.63;67.78
67013;BME280;53926;47.406;19.188;2023-02-28T07:22:58;101524.47;;;1.68;68.60
67013;BME280;53926;47.406;19.188;2023-02-28T07:25:26;101537.16;;;1.92;63.46
67013;BME280;53926;47.406;19.188;2023-02-28T07:27:55;101529.72;;;1.89;63.87
67013;BME280;53926;47.406;19.188;2023-02-28T07:30:22;101537.38;;;2.44;61.42
67013;BME280;53926;47.406;19.188;2023-02-28T07:32:48;101529.78;;;2.42;59.58
67013;BME280;53926;47.406;19.188;2023-02-28T07:35:15;101540.00;;;2.54;59.21
67013;BME280;53926;47.406;19.188;2023-02-28T07:37:42;101530.16;;;2.80;60.82
67013;BME280;53926;47.406;19.188;2023-02-28T07:40:10;101542.94;;;3.12;58.15
67013;BME280;53926;47.406;19.188;2023-02-28T07:42:41;101535.63;;;3.38;56.92
67013;BME280;53926;47.406;19.188;2023-02-28T07:45:09;101543.75;;;3.74;56.20
67013;BME280;53926;47.406;19.188;2023-02-28T07:47:38;101546.28;;;3.65;55.46
67013;BME280;53926;47.406;19.188;2023-02-28T07:50:07;101547.03;;;4.74;53.50
67013;BME280;53926;47.406;19.188;2023-02-28T07:52:34;101550.72;;;4.72;52.84
67013;BME280;53926;47.406;19.188;2023-02-28T07:55:02;101552.22;;;4.45;51.78
67013;BME280;53926;47.406;19.188;2023-02-28T07:57:29;101547.50;;;4.21;53.96
67013;BME280;53926;47.406;19.188;2023-02-28T07:59:55;101544.97;;;5.07;52.06
67013;BME280;53926;47.406;19.188;2023-02-28T08:02:22;101542.72;;;5.22;49.69
67013;BME280;53926;47.406;19.188;2023-02-28T08:04:49;101535.41;;;4.51;49.86
67013;BME280;53926;47.406;19.188;2023-02-28T08:07:16;101537.00;;;5.28;48.27
67013;BME280;53926;47.406;19.188;2023-02-28T08:09:44;101532.22;;;5.89;48.42
67013;BME280;53926;47.406;19.188;2023-02-28T08:12:11;101545.06;;;4.48;50.25
67013;BME280;53926;47.406;19.188;2023-02-28T08:14:38;101544.38;;;4.56;49.07
67013;BME280;53926;47.406;19.188;2023-02-28T08:17:06;101547.41;;;4.99;48.82
67013;BME280;53926;47.406;19.188;2023-02-28T08:19:33;101549.19;;;3.91;50.71
67013;BME280;53926;47.406;19.188;2023-02-28T08:21:59;101548.72;;;4.36;50.95
67013;BME280;53926;47.406;19.188;2023-02-28T08:24:26;101545.59;;;4.23;50.68
67013;BME280;53926;47.406;19.188;2023-02-28T08:26:53;101554.53;;;4.58;50.74
67013;BME280;53926;47.406;19.188;2023-02-28T08:29:19;101537.50;;;5.04;49.22
67013;BME280;53926;47.406;19.188;2023-02-28T08:31:46;101538.37;;;4.75;50.20
67013;BME280;53926;47.406;19.188;2023-02-28T08:34:15;101542.72;;;4.65;50.44
67013;BME280;53926;47.406;19.188;2023-02-28T08:36:42;101536.69;;;4.94;49.27
67013;BME280;53926;47.406;19.188;2023-02-28T08:39:12;101545.03;;;4.78;49.73
67013;BME280;53926;47.406;19.188;2023-02-28T08:41:38;101535.19;;;5.01;48.56
67013;BME280;53926;47.406;19.188;2023-02-28T08:44:05;101541.78;;;4.46;51.17
67013;BME280;53926;47.406;19.188;2023-02-28T08:46:32;101537.81;;;4.81;48.78
67013;BME280;53926;47.406;19.188;2023-02-28T08:48:58;101542.41;;;4.88;49.93
67013;BME280;53926;47.406;19.188;2023-02-28T08:51:28;101534.84;;;4.76;49.41
67013;BME280;53926;47.406;19.188;2023-02-28T08:53:58;101537.84;;;5.19;48.85
67013;BME280;53926;47.406;19.188;2023-02-28T08:56:27;101542.56;;;5.33;50.42
67013;BME280;53926;47.406;19.188;2023-02-28T08:58:55;101538.25;;;5.14;49.11
67013;BME280;53926;47.406;19.188;2023-02-28T09:01:25;101539.75;;;5.27;47.79
67013;BME280;53926;47.406;19.188;2023-02-28T09:03:54;101527.84;;;5.71;46.52
67013;BME280;53926;47.406;19.188;2023-02-28T09:06:26;101538.87;;;5.91;47.78
67013;BME280;53926;47.406;19.188;2023-02-28T09:08:57;101540.03;;;6.07;46.83
67013;BME280;53926;47.406;19.188;2023-02-28T09:11:25;101547.59;;;5.63;48.83
67013;BME280;53926;47.406;19.188;2023-02-28T09:13:52;101548.25;;;3.82;54.00
67013;BME280;53926;47.406;19.188;2023-02-28T09:16:18;101546.25;;;4.05;52.17
67013;BME280;53926;47.406;19.188;2023-02-28T09:18:45;101544.03;;;4.98;52.46
67013;BME280;53926;47.406;19.188;2023-02-28T09:21:14;101547.56;;;4.88;51.84
67013;BME280;53926;47.406;19.188;2023-02-28T09:23:46;101542.06;;;5.20;52.42
67013;BME280;53926;47.406;19.188;2023-02-28T09:26:16;101540.50;;;5.37;51.01
67013;BME280;53926;47.406;19.188;2023-02-28T09:28:43;101535.94;;;5.21;51.05
67013;BME280;53926;47.406;19.188;2023-02-28T09:31:16;101535.25;;;5.29;51.48
67013;BME280;53926;47.406;19.188;2023-02-28T09:33:43;101531.81;;;7.26;47.42
67013;BME280;53926;47.406;19.188;2023-02-28T09:36:09;101545.91;;;6.17;49.53
67013;BME280;53926;47.406;19.188;2023-02-28T09:38:36;101540.34;;;6.92;45.83
67013;BME280;53926;47.406;19.188;2023-02-28T09:41:11;101553.25;;;5.94;48.86
67013;BME280;53926;47.406;19.188;2023-02-28T09:43:44;101546.44;;;6.39;49.14
67013;BME280;53926;47.406;19.188;2023-02-28T09:49:06;101539.88;;;6.08;48.76
67013;BME280;53926;47.406;19.188;2023-02-28T09:52:06;101539.97;;;7.40;45.94
67013;BME280;53926;47.406;19.188;2023-02-28T09:54:36;101525.97;;;7.24;46.28
67013;BME280;53926;47.406;19.188;2023-02-28T09:57:09;101533.22;;;7.63;46.61
67013;BME280;53926;47.406;19.188;2023-02-28T10:00:06;101533.00;;;7.48;47.07
67013;BME280;53926;47.406;19.188;2023-02-28T10:05:23;101533.28;;;7.29;49.32
67013;BME280;53926;47.406;19.188;2023-02-28T10:08:14;101521.97;;;7.89;44.34
67013;BME280;53926;47.406;19.188;2023-02-28T10:10:45;101517.38;;;9.06;43.28
67013;BME280;53926;47.406;19.188;2023-02-28T10:13:17;101521.03;;;8.23;43.66
67013;BME280;53926;47.406;19.188;2023-02-28T10:15:51;101517.91;;;7.36;46.67
67013;BME280;53926;47.406;19.188;2023-02-28T10:18:26;101519.44;;;8.55;45.96
67013;BME280;53926;47.406;19.188;2023-02-28T10:20:54;101519.38;;;7.97;45.64
67013;BME280;53926;47.406;19.188;2023-02-28T10:26:04;101524.28;;;8.83;44.94
67013;BME280;53926;47.406;19.188;2023-02-28T10:28:32;101520.06;;;8.57;46.56
67013;BME280;53926;47.406;19.188;2023-02-28T10:30:58;101512.59;;;9.26;41.85
67013;BME280;53926;47.406;19.188;2023-02-28T10:33:31;101515.00;;;9.36;43.94
67013;BME280;53926;47.406;19.188;2023-02-28T10:35:59;101509.53;;;11.30;38.54
67013;BME280;53926;47.406;19.188;2023-02-28T10:38:36;101505.94;;;10.71;39.44
67013;BME280;53926;47.406;19.188;2023-02-28T10:41:10;101506.22;;;10.76;39.04
67013;BME280;53926;47.406;19.188;2023-02-28T10:43:39;101497.47;;;12.02;37.38
67013;BME280;53926;47.406;19.188;2023-02-28T10:48:36;101498.66;;;8.05;44.65
67013;BME280;53926;47.406;19.188;2023-02-28T10:51:07;101495.09;;;6.70;48.52
67013;BME280;53926;47.406;19.188;2023-02-28T10:56:26;101497.38;;;7.08;47.84
67013;BME280;53926;47.406;19.188;2023-02-28T11:01:44;101488.84;;;7.75;46.96
67013;BME280;53926;47.406;19.188;2023-02-28T11:04:32;101499.16;;;7.42;47.20
67013;BME280;53926;47.406;19.188;2023-02-28T11:07:19;101482.38;;;6.85;48.28
67013;BME280;53926;47.406;19.188;2023-02-28T11:09:54;101493.00;;;7.43;46.86
67013;BME280;53926;47.406;19.188;2023-02-28T11:12:27;101496.62;;;7.15;48.66
67013;BME280;53926;47.406;19.188;2023-02-28T11:14:57;101491.03;;;7.37;49.46
67013;BME280;53926;47.406;19.188;2023-02-28T11:17:31;101494.94;;;6.09;50.80
67013;BME280;53926;47.406;19.188;2023-02-28T11:20:01;101489.19;;;6.86;50.46
67013;BME280;53926;47.406;19.188;2023-02-28T11:22:33;101487.41;;;6.60;50.21
67013;BME280;53926;47.406;19.188;2023-02-28T11:25:07;101478.69;;;6.61;50.75
67013;BME280;53926;47.406;19.188;2023-02-28T11:30:03;101482.78;;;6.98;49.28
67013;BME280;53926;47.406;19.188;2023-02-28T11:32:30;101484.69;;;7.23;49.61
67013;BME280;53926;47.406;19.188;2023-02-28T11:35:17;101483.84;;;6.88;50.92
67013;BME280;53926;47.406;19.188;2023-02-28T11:37:48;101481.59;;;6.93;53.58
67013;BME280;53926;47.406;19.188;2023-02-28T11:40:17;101471.59;;;9.05;45.42
67013;BME280;53926;47.406;19.188;2023-02-28T11:51:34;101462.22;;;10.81;40.92
67013;BME280;53926;47.406;19.188;2023-02-28T11:54:08;101470.78;;;10.52;40.33
67013;BME280;53926;47.406;19.188;2023-02-28T11:56:47;101454.97;;;10.38;40.63
67013;BME280;53926;47.406;19.188;2023-02-28T12:12:29;101450.59;;;8.75;47.11
67013;BME280;53926;47.406;19.188;2023-02-28T12:20:58;101443.19;;;9.35;45.27
67013;BME280;53926;47.406;19.188;2023-02-28T12:28:51;101427.16;;;11.57;39.53
67013;BME280;53926;47.406;19.188;2023-02-28T12:31:36;101425.97;;;12.03;38.20
67013;BME280;53926;47.406;19.188;2023-02-28T12:34:09;101416.91;;;13.03;36.07
67013;BME280;53926;47.406;19.188;2023-02-28T12:36:39;101415.53;;;13.14;37.37
67013;BME280;53926;47.406;19.188;2023-02-28T12:41:49;101412.78;;;13.36;35.48
67013;BME280;53926;47.406;19.188;2023-02-28T12:44:26;101423.22;;;10.58;39.56
67013;BME280;53926;47.406;19.188;2023-02-28T12:47:02;101426.94;;;8.54;44.24
67013;BME280;53926;47.406;19.188;2023-02-28T12:49:34;101426.56;;;9.44;44.05
67013;BME280;53926;47.406;19.188;2023-02-28T12:52:05;101421.72;;;8.70;45.98
67013;BME280;53926;47.406;19.188;2023-02-28T12:59:54;101415.47;;;9.27;45.40
67013;BME280;53926;47.406;19.188;2023-02-28T13:10:42;101401.69;;;9.19;44.44
67013;BME280;53926;47.406;19.188;2023-02-28T13:13:15;101400.56;;;7.84;49.52
67013;BME280;53926;47.406;19.188;2023-02-28T13:16:14;101407.75;;;7.15;49.53
67013;BME280;53926;47.406;19.188;2023-02-28T13:18:44;101402.34;;;7.08;51.33
67013;BME280;53926;47.406;19.188;2023-02-28T13:21:27;101390.19;;;7.01;50.29
67013;BME280;53926;47.406;19.188;2023-02-28T13:29:04;101389.56;;;6.64;50.89
67013;BME280;53926;47.406;19.188;2023-02-28T13:39:57;101376.06;;;6.44;54.02
67013;BME280;53926;47.406;19.188;2023-02-28T13:47:30;101374.75;;;6.48;53.79
67013;BME280;53926;47.406;19.188;2023-02-28T13:53:23;101370.16;;;5.89;56.09
67013;BME280;53926;47.406;19.188;2023-02-28T14:06:32;101376.97;;;5.54;57.88
67013;BME280;53926;47.406;19.188;2023-02-28T14:11:44;101369.34;;;6.07;59.11
67013;BME280;53926;47.406;19.188;2023-02-28T14:17:06;101371.44;;;5.49;59.09
67013;BME280;53926;47.406;19.188;2023-02-28T14:19:37;101365.91;;;5.98;58.60
67013;BME280;53926;47.406;19.188;2023-02-28T14:25:35;101368.19;;;5.65;58.97
67013;BME280;53926;47.406;19.188;2023-02-28T14:28:13;101362.94;;;5.93;58.11
67013;BME280;53926;47.406;19.188;2023-02-28T14:31:06;101355.16;;;5.93;57.93
67013;BME280;53926;47.406;19.188;2023-02-28T14:36:36;101351.00;;;5.56;58.23
67013;BME280;53926;47.406;19.188;2023-02-28T14:39:19;101360.59;;;5.46;58.79
67013;BME280;53926;47.406;19.188;2023-02-28T14:41:46;101353.56;;;5.38;59.30
67013;BME280;53926;47.406;19.188;2023-02-28T14:44:19;101369.88;;;5.57;58.55
67013;BME280;53926;47.406;19.188;2023-02-28T14:46:50;101356.13;;;5.74;59.83
67013;BME280;53926;47.406;19.188;2023-02-28T14:51:50;101351.25;;;5.17;60.40
67013;BME280;53926;47.406;19.188;2023-02-28T14:54:28;101358.94;;;5.09;61.08
67013;BME280;53926;47.406;19.188;2023-02-28T14:56:55;101364.03;;;5.18;61.26
67013;BME280;53926;47.406;19.188;2023-02-28T14:59:30;101350.94;;;5.02;61.00
67013;BME280;53926;47.406;19.188;2023-02-28T15:02:21;101350.72;;;4.95;61.81
67013;BME280;53926;47.406;19.188;2023-02-28T15:04:54;101375.16;;;5.01;62.49
67013;BME280;53926;47.406;19.188;2023-02-28T15:07:21;101372.72;;;4.90;61.88
67013;BME280;53926;47.406;19.188;2023-02-28T15:10:27;101365.69;;;4.92;62.96
67013;BME280;53926;47.406;19.188;2023-02-28T15:12:59;101367.78;;;4.78;62.44
67013;BME280;53926;47.406;19.188;2023-02-28T15:18:56;101365.34;;;4.77;62.93
67013;BME280;53926;47.406;19.188;2023-02-28T15:21:34;101370.88;;;4.82;65.42
67013;BME280;53926;47.406;19.188;2023-02-28T15:24:11;101371.56;;;4.84;62.76
67013;BME280;53926;47.406;19.188;2023-02-28T15:26:43;101371.41;;;4.86;63.57
67013;BME280;53926;47.406;19.188;2023-02-28T15:29:15;101368.06;;;4.75;64.36
67013;BME280;53926;47.406;19.188;2023-02-28T15:31:56;101362.53;;;4.70;63.41
67013;BME280;53926;47.406;19.188;2023-02-28T15:37:38;101364.25;;;4.70;63.78
67013;BME280;53926;47.406;19.188;2023-02-28T15:40:37;101365.63;;;4.74;64.02